createdAt,value
2022-08-11T00:00:59.447Z,22.74
2022-08-11T00:03:26.569Z,22.74
2022-08-11T00:06:14.062Z,22.77
2022-08-11T00:08:42.358Z,22.80
2022-08-11T00:11:12.535Z,22.53
2022-08-11T00:13:45.329Z,22.47
2022-08-11T00:16:19.990Z,22.20
2022-08-11T00:18:50.480Z,22.23
2022-08-11T00:21:18.743Z,21.89
2022-08-11T00:23:57.572Z,21.96
2022-08-11T00:26:25.756Z,22.33
2022-08-11T00:28:52.975Z,22.73
2022-08-11T00:31:28.054Z,22.91
2022-08-11T00:33:56.302Z,22.45
2022-08-11T00:36:28.976Z,22.66
2022-08-11T00:39:04.430Z,22.28
2022-08-11T00:42:06.935Z,22.27
2022-08-11T00:44:43.040Z,22.42
2022-08-11T00:47:35.194Z,22.66
2022-08-11T00:50:34.115Z,22.73
2022-08-11T00:53:23.421Z,22.63
2022-08-11T00:56:27.607Z,22.90
2022-08-11T00:59:36.140Z,22.73
2022-08-11T01:02:17.192Z,22.71
2022-08-11T01:05:14.944Z,22.38
2022-08-11T01:08:11.946Z,22.41
2022-08-11T01:10:48.846Z,22.34
2022-08-11T01:13:34.016Z,22.32
2022-08-11T01:16:39.449Z,22.40
2022-08-11T01:19:09.078Z,22.49
2022-08-11T01:22:00.644Z,22.61
2022-08-11T01:24:33.373Z,22.65
2022-08-11T01:27:42.968Z,22.49
2022-08-11T01:30:41.931Z,22.37
2022-08-11T01:33:27.301Z,22.45
2022-08-11T01:36:42.096Z,22.48
2022-08-11T01:39:32.705Z,22.03
2022-08-11T01:42:43.077Z,21.86
2022-08-11T01:45:18.323Z,22.14
2022-08-11T01:47:53.076Z,22.05
2022-08-11T01:51:03.410Z,21.50
2022-08-11T01:54:00.849Z,22.11
2022-08-11T01:56:33.405Z,22.06
2022-08-11T01:59:13.926Z,21.92
2022-08-11T02:02:04.946Z,21.83
2022-08-11T02:04:38.369Z,21.94
2022-08-11T02:07:18.895Z,21.61
2022-08-11T02:10:35.143Z,21.82
2022-08-11T02:13:36.479Z,22.13
2022-08-11T02:16:22.569Z,22.19
2022-08-11T02:19:38.128Z,21.93
2022-08-11T02:22:32.469Z,22.02
2022-08-11T02:25:06.938Z,22.02
2022-08-11T02:27:48.853Z,21.88
2022-08-11T02:30:18.273Z,21.96
2022-08-11T02:33:10.673Z,21.93
2022-08-11T02:35:51.602Z,22.24
2022-08-11T02:38:33.855Z,21.89
2022-08-11T02:41:39.580Z,21.43
2022-08-11T02:44:28.334Z,21.35
2022-08-11T02:47:14.519Z,21.84
2022-08-11T02:50:15.727Z,21.68
2022-08-11T02:53:12.410Z,21.30
2022-08-11T02:55:57.895Z,21.40
2022-08-11T02:59:21.451Z,21.52
2022-08-11T03:02:10.764Z,21.43
2022-08-11T03:05:04.233Z,21.50
2022-08-11T03:07:41.043Z,21.41
2022-08-11T03:10:18.062Z,21.30
2022-08-11T03:13:07.673Z,21.42
2022-08-11T03:16:25.299Z,21.84
2022-08-11T03:19:01.237Z,21.92
2022-08-11T03:22:02.612Z,21.35
2022-08-11T03:24:42.534Z,21.39
2022-08-11T03:27:22.697Z,21.00
2022-08-11T03:30:08.183Z,21.08
2022-08-11T03:33:09.490Z,21.78
2022-08-11T03:35:41.760Z,21.35
2022-08-11T03:38:15.851Z,20.97
2022-08-11T03:42:02.394Z,20.93
2022-08-11T03:44:29.011Z,21.00
2022-08-11T03:47:10.726Z,20.87
2022-08-11T03:50:03.659Z,21.05
2022-08-11T03:53:14.444Z,21.21
2022-08-11T03:56:19.176Z,20.99
2022-08-11T03:59:03.771Z,20.57
2022-08-11T04:02:06.679Z,20.81
2022-08-11T04:05:07.490Z,21.38
2022-08-11T04:07:40.218Z,20.23
2022-08-11T04:10:28.696Z,20.43
2022-08-11T04:13:32.947Z,20.61
2022-08-11T04:16:32.674Z,20.51
2022-08-11T04:19:17.753Z,20.31
2022-08-11T04:22:35.294Z,20.14
2022-08-11T04:25:10.387Z,20.23
2022-08-11T04:28:04.594Z,20.36
2022-08-11T04:30:53.605Z,20.58
2022-08-11T04:33:35.100Z,20.19
2022-08-11T04:36:09.540Z,20.40
2022-08-11T04:39:25.118Z,20.77
2022-08-11T04:42:32.602Z,20.42
2022-08-11T04:45:27.275Z,20.21
2022-08-11T04:48:42.033Z,19.86
2022-08-11T04:52:04.961Z,20.34
2022-08-11T04:55:19.663Z,19.97
2022-08-11T04:58:08.039Z,20.47
2022-08-11T05:01:38.779Z,20.12
2022-08-11T05:04:48.577Z,20.03
2022-08-11T05:07:55.122Z,20.31
2022-08-11T05:10:48.149Z,20.39
2022-08-11T05:14:07.808Z,20.29
2022-08-11T05:17:02.142Z,20.20
2022-08-11T05:19:47.769Z,20.17
2022-08-11T05:22:38.099Z,20.46
2022-08-11T05:26:44.264Z,20.56
2022-08-11T05:28:47.175Z,20.78
2022-08-11T05:31:34.869Z,20.46
2022-08-11T05:34:29.045Z,20.44
2022-08-11T05:37:25.297Z,20.39
2022-08-11T05:40:16.340Z,20.19
2022-08-11T05:43:07.278Z,20.21
2022-08-11T05:46:03.467Z,20.06
2022-08-11T05:48:55.223Z,20.06
2022-08-11T05:51:54.739Z,19.94
2022-08-11T05:54:42.431Z,20.16
2022-08-11T05:57:10.413Z,20.21
2022-08-11T06:00:02.863Z,20.07
2022-08-11T06:02:33.486Z,20.27
2022-08-11T06:05:01.497Z,20.47
2022-08-11T06:07:30.389Z,20.71
2022-08-11T06:10:27.049Z,20.55
2022-08-11T06:12:55.874Z,20.35
2022-08-11T06:15:23.936Z,20.62
2022-08-11T06:17:51.392Z,20.54
2022-08-11T06:20:19.522Z,20.53
2022-08-11T06:22:55.134Z,20.42
2022-08-11T06:25:22.453Z,20.35
2022-08-11T06:27:56.337Z,20.41
2022-08-11T06:30:35.145Z,20.50
2022-08-11T06:33:06.139Z,20.61
2022-08-11T06:35:46.096Z,20.80
2022-08-11T06:38:22.202Z,20.53
2022-08-11T06:41:17.781Z,20.73
2022-08-11T06:44:04.633Z,20.74
2022-08-11T06:46:39.113Z,20.71
2022-08-11T06:49:28.354Z,20.86
2022-08-11T06:52:00.639Z,21.09
2022-08-11T06:54:36.264Z,21.10
2022-08-11T06:57:30.865Z,21.51
2022-08-11T07:00:18.538Z,21.28
2022-08-11T07:03:03.992Z,21.45
2022-08-11T07:05:48.669Z,21.62
2022-08-11T07:09:14.500Z,21.22
2022-08-11T07:12:42.461Z,21.30
2022-08-11T07:16:09.019Z,21.77
2022-08-11T07:18:53.062Z,21.48
2022-08-11T07:22:02.832Z,21.51
2022-08-11T07:25:02.562Z,21.47
2022-08-11T07:28:01.861Z,21.89
2022-08-11T07:30:29.250Z,21.74
2022-08-11T07:32:59.732Z,21.82
2022-08-11T07:35:32.648Z,21.96
2022-08-11T07:38:08.001Z,21.86
2022-08-11T07:40:36.612Z,22.21
2022-08-11T07:43:04.026Z,22.27
2022-08-11T07:45:49.994Z,22.23
2022-08-11T07:48:35.951Z,22.25
2022-08-11T07:51:21.640Z,22.42
2022-08-11T07:54:16.358Z,22.72
2022-08-11T07:56:54.260Z,22.70
2022-08-11T08:00:03.760Z,22.80
2022-08-11T08:02:58.879Z,22.81
2022-08-11T08:05:44.590Z,23.16
2022-08-11T08:08:32.777Z,23.34
2022-08-11T08:11:21.344Z,23.56
2022-08-11T08:14:12.398Z,23.43
2022-08-11T08:16:59.157Z,23.48
2022-08-11T08:19:26.101Z,23.69
2022-08-11T08:21:53.229Z,23.36
2022-08-11T08:24:21.308Z,23.65
2022-08-11T08:27:01.099Z,23.68
2022-08-11T08:29:51.417Z,23.55
2022-08-11T08:32:19.505Z,23.82
2022-08-11T08:34:47.077Z,24.06
2022-08-11T08:37:16.221Z,24.07
2022-08-11T08:40:01.791Z,23.87
2022-08-11T08:42:31.814Z,24.21
2022-08-11T08:45:08.016Z,24.18
2022-08-11T08:47:47.007Z,24.50
2022-08-11T08:50:21.448Z,24.32
2022-08-11T08:53:05.263Z,24.47
2022-08-11T08:55:33.674Z,24.82
2022-08-11T08:58:00.952Z,25.00
2022-08-11T09:00:39.690Z,24.65
2022-08-11T09:03:36.160Z,24.82
2022-08-11T09:05:57.118Z,24.68
2022-08-11T09:08:24.784Z,24.84
2022-08-11T09:11:14.011Z,24.94
2022-08-11T09:13:44.264Z,24.96
2022-08-11T09:16:12.711Z,24.80
2022-08-11T09:18:43.596Z,25.06
2022-08-11T09:21:14.803Z,25.30
2022-08-11T09:24:26.007Z,25.52
2022-08-11T09:27:05.841Z,25.26
2022-08-11T09:29:33.481Z,25.69
2022-08-11T09:32:01.029Z,25.16
2022-08-11T09:34:28.568Z,25.65
2022-08-11T09:37:53.411Z,25.54
2022-08-11T09:40:21.213Z,25.64
2022-08-11T09:43:13.150Z,25.55
2022-08-11T09:45:40.731Z,25.64
2022-08-11T09:48:07.863Z,25.71
2022-08-11T09:50:35.285Z,25.95
2022-08-11T09:53:36.043Z,25.84
2022-08-11T09:55:53.277Z,26.16
2022-08-11T09:58:42.013Z,26.25
2022-08-11T10:01:26.963Z,26.22
2022-08-11T10:04:25.660Z,25.97
2022-08-11T10:07:04.441Z,25.98
2022-08-11T10:09:35.965Z,25.98
2022-08-11T10:12:08.208Z,26.50
2022-08-11T10:14:59.326Z,26.33
2022-08-11T10:17:27.353Z,26.35
2022-08-11T10:20:05.518Z,26.36
2022-08-11T10:22:52.390Z,26.45
2022-08-11T10:25:39.159Z,26.54
2022-08-11T10:28:28.747Z,26.53
2022-08-11T10:31:14.905Z,26.48
2022-08-11T10:34:00.562Z,26.63
2022-08-11T10:36:34.678Z,26.81
2022-08-11T10:39:05.621Z,26.51
2022-08-11T10:42:07.557Z,26.70
2022-08-11T10:44:44.767Z,27.00
2022-08-11T10:47:33.345Z,26.90
2022-08-11T10:50:23.163Z,26.98
2022-08-11T10:53:09.858Z,26.68
2022-08-11T10:55:58.786Z,27.19
2022-08-11T10:58:44.718Z,27.31
2022-08-11T11:01:12.296Z,27.48
2022-08-11T11:03:39.515Z,27.45
2022-08-11T11:06:29.483Z,26.99
2022-08-11T11:09:04.448Z,27.14
2022-08-11T11:11:56.515Z,27.34
2022-08-11T11:14:50.650Z,27.66
2022-08-11T11:17:26.656Z,27.39
2022-08-11T11:19:57.860Z,27.33
2022-08-11T11:22:39.877Z,27.72
2022-08-11T11:25:16.622Z,27.49
2022-08-11T11:27:49.666Z,28.33
2022-08-11T11:30:18.580Z,28.33
2022-08-11T11:33:02.483Z,28.05
2022-08-11T11:35:56.225Z,27.66
2022-08-11T11:38:22.974Z,27.69
2022-08-11T11:41:10.239Z,27.46
2022-08-11T11:43:39.393Z,27.68
2022-08-11T11:46:07.719Z,27.64
2022-08-11T11:48:35.688Z,27.93
2022-08-11T11:51:02.846Z,27.86
2022-08-11T11:53:30.273Z,28.16
2022-08-11T11:56:01.116Z,28.15
2022-08-11T11:58:47.363Z,28.01
2022-08-11T12:01:17.459Z,27.85
2022-08-11T12:03:49.878Z,27.97
2022-08-11T12:06:18.997Z,28.24
2022-08-11T12:08:50.205Z,28.32
2022-08-11T12:11:39.592Z,28.23
2022-08-11T12:14:10.705Z,27.87
2022-08-11T12:16:40.252Z,27.99
2022-08-11T12:19:11.733Z,28.11
2022-08-11T12:22:00.728Z,28.20
2022-08-11T12:24:48.377Z,28.59
2022-08-11T12:27:24.954Z,28.80
2022-08-11T12:30:01.975Z,28.35
2022-08-11T12:32:31.907Z,28.39
2022-08-11T12:34:59.386Z,28.50
2022-08-11T12:37:34.217Z,28.66
2022-08-11T12:40:49.669Z,28.36
2022-08-11T12:43:39.753Z,28.59
2022-08-11T12:46:09.679Z,28.30
2022-08-11T12:49:02.361Z,28.20
2022-08-11T12:52:11.422Z,28.24
2022-08-11T12:54:57.692Z,28.19
2022-08-11T12:57:54.301Z,28.46
2022-08-11T13:00:40.581Z,28.32
2022-08-11T13:03:28.089Z,28.42
2022-08-11T13:05:57.666Z,28.46
2022-08-11T13:08:26.499Z,28.43
2022-08-11T13:11:15.878Z,28.53
2022-08-11T13:13:54.168Z,28.40
2022-08-11T13:16:52.782Z,28.57
2022-08-11T13:19:21.118Z,28.17
2022-08-11T13:21:49.848Z,28.33
2022-08-11T13:24:18.494Z,28.78
2022-08-11T13:26:49.918Z,28.58
2022-08-11T13:29:25.583Z,28.89
2022-08-11T13:32:01.038Z,28.74
2022-08-11T13:34:31.173Z,28.75
2022-08-11T13:37:01.192Z,28.90
2022-08-11T13:39:30.752Z,28.78
2022-08-11T13:41:59.888Z,28.60
2022-08-11T13:44:29.859Z,28.55
2022-08-11T13:46:58.692Z,28.51
2022-08-11T13:49:26.553Z,28.99
2022-08-11T13:51:54.919Z,28.81
2022-08-11T13:54:24.209Z,28.85
2022-08-11T13:56:56.062Z,29.16
2022-08-11T13:59:30.856Z,29.08
2022-08-11T14:02:22.865Z,28.72
2022-08-11T14:05:17.990Z,28.47
2022-08-11T14:08:37.277Z,28.42
2022-08-11T14:12:21.364Z,28.67
2022-08-11T14:14:21.206Z,28.67
2022-08-11T14:16:51.216Z,28.69
2022-08-11T14:19:22.637Z,28.94
2022-08-11T14:22:10.063Z,28.69
2022-08-11T14:24:41.441Z,29.09
2022-08-11T14:28:30.078Z,29.11
2022-08-11T14:29:58.945Z,28.85
2022-08-11T14:32:26.303Z,28.57
2022-08-11T14:34:54.782Z,28.63
2022-08-11T14:37:23.669Z,28.88
2022-08-11T14:39:57.216Z,28.81
2022-08-11T14:42:46.145Z,28.94
2022-08-11T14:45:54.226Z,29.21
2022-08-11T14:48:21.374Z,28.85
2022-08-11T14:50:48.047Z,29.16
2022-08-11T14:53:17.898Z,28.96
2022-08-11T14:56:04.803Z,28.74
2022-08-11T14:58:33.849Z,29.33
2022-08-11T15:01:02.361Z,29.05
2022-08-11T15:03:31.675Z,29.11
2022-08-11T15:06:02.208Z,28.96
2022-08-11T15:08:48.567Z,28.88
2022-08-11T15:11:38.937Z,28.79
2022-08-11T15:14:07.827Z,28.52
2022-08-11T15:16:56.102Z,28.39
2022-08-11T15:19:24.998Z,28.59
2022-08-11T15:22:10.304Z,28.81
2022-08-11T15:24:37.588Z,28.68
2022-08-11T15:27:32.124Z,28.54
2022-08-11T15:30:32.119Z,28.65
2022-08-11T15:33:23.286Z,28.92
2022-08-11T15:36:09.437Z,29.05
2022-08-11T15:38:42.688Z,28.95
2022-08-11T15:41:33.025Z,28.66
2022-08-11T15:44:38.777Z,29.31
2022-08-11T15:47:14.375Z,29.06
2022-08-11T15:50:10.639Z,29.15
2022-08-11T15:52:37.832Z,29.82
2022-08-11T15:55:08.708Z,29.77
2022-08-11T15:57:55.869Z,29.62
2022-08-11T16:00:41.666Z,29.10
2022-08-11T16:04:06.479Z,29.10
2022-08-11T16:06:17.123Z,29.14
2022-08-11T16:08:45.933Z,29.01
2022-08-11T16:11:13.839Z,28.92
2022-08-11T16:13:40.981Z,28.67
2022-08-11T16:16:16.245Z,28.70
2022-08-11T16:18:54.822Z,28.57
2022-08-11T16:21:26.223Z,28.97
2022-08-11T16:24:05.932Z,28.97
2022-08-11T16:27:09.451Z,28.77
2022-08-11T16:29:25.278Z,28.50
2022-08-11T16:32:13.526Z,28.84
2022-08-11T16:35:00.628Z,28.88
2022-08-11T16:37:46.987Z,28.72
2022-08-11T16:40:15.117Z,28.98
2022-08-11T16:43:09.998Z,28.55
2022-08-11T16:45:58.997Z,28.46
2022-08-11T16:48:37.039Z,28.65
2022-08-11T16:51:10.439Z,28.60
2022-08-11T16:53:54.594Z,28.36
2022-08-11T16:56:44.924Z,28.28
2022-08-11T16:59:19.590Z,28.18
2022-08-11T17:01:52.994Z,28.62
2022-08-11T17:04:56.980Z,28.34
2022-08-11T17:07:44.408Z,28.30
2022-08-11T17:10:50.950Z,28.32
2022-08-11T17:13:23.773Z,28.26
2022-08-11T17:16:06.984Z,28.32
2022-08-11T17:18:40.179Z,28.38
2022-08-11T17:21:12.681Z,28.24
2022-08-11T17:23:47.440Z,27.76
2022-08-11T17:26:20.756Z,27.82
2022-08-11T17:28:53.881Z,28.13
2022-08-11T17:31:41.786Z,27.98
2022-08-11T17:34:27.983Z,28.13
2022-08-11T17:36:55.934Z,28.34
2022-08-11T17:39:29.122Z,28.14
2022-08-11T17:42:15.074Z,27.90
2022-08-11T17:45:01.365Z,28.07
2022-08-11T17:47:49.178Z,28.11
2022-08-11T17:50:17.621Z,27.90
2022-08-11T17:53:05.633Z,28.14
2022-08-11T17:55:54.161Z,27.91
2022-08-11T17:58:41.725Z,27.77
2022-08-11T18:01:11.315Z,27.76
2022-08-11T18:03:41.454Z,28.00
2022-08-11T18:06:12.859Z,28.10
2022-08-11T18:09:07.699Z,28.06
2022-08-11T18:12:11.993Z,27.81
2022-08-11T18:15:03.932Z,28.20
2022-08-11T18:17:49.662Z,28.20
2022-08-11T18:20:36.763Z,28.07
2022-08-11T18:23:46.030Z,27.89
2022-08-11T18:26:34.395Z,28.12
2022-08-11T18:29:20.390Z,28.12
2022-08-11T18:32:08.172Z,28.05
2022-08-11T18:34:58.965Z,28.07
2022-08-11T18:37:53.893Z,28.01
2022-08-11T18:40:44.868Z,27.83
2022-08-11T18:43:32.185Z,27.91
2022-08-11T18:46:25.058Z,28.03
2022-08-11T18:50:01.402Z,27.78
2022-08-11T18:52:36.160Z,27.47
2022-08-11T18:55:26.299Z,27.10
2022-08-11T18:58:13.901Z,27.17
2022-08-11T19:01:01.890Z,26.76
2022-08-11T19:03:50.176Z,26.75
2022-08-11T19:06:40.896Z,26.74
2022-08-11T19:09:30.355Z,26.61
2022-08-11T19:12:16.924Z,26.54
2022-08-11T19:15:04.474Z,26.71
2022-08-11T19:17:52.978Z,26.08
2022-08-11T19:20:46.359Z,26.17
2022-08-11T19:23:37.744Z,26.20
2022-08-11T19:26:24.691Z,26.03
2022-08-11T19:30:07.279Z,26.33
2022-08-11T19:32:17.634Z,26.01
2022-08-11T19:35:04.311Z,25.71
2022-08-11T19:37:51.258Z,26.14
2022-08-11T19:40:37.979Z,26.39
2022-08-11T19:43:26.420Z,26.47
2022-08-11T19:46:17.421Z,26.04
2022-08-11T19:49:05.032Z,25.67
2022-08-11T19:51:53.663Z,25.24
2022-08-11T19:54:43.454Z,25.42
2022-08-11T19:57:29.079Z,25.50
2022-08-11T20:00:15.221Z,25.36
2022-08-11T20:03:00.444Z,24.98
2022-08-11T20:05:55.737Z,24.98
2022-08-11T20:08:47.027Z,25.06
2022-08-11T20:11:33.917Z,25.01
2022-08-11T20:14:20.969Z,25.55
2022-08-11T20:17:06.912Z,25.53
2022-08-11T20:19:57.110Z,25.48
2022-08-11T20:22:45.089Z,25.18
2022-08-11T20:25:31.260Z,24.81
2022-08-11T20:28:16.475Z,24.80
2022-08-11T20:31:04.251Z,24.77
2022-08-11T20:33:51.828Z,24.89
2022-08-11T20:36:37.135Z,24.72
2022-08-11T20:39:23.491Z,24.99
2022-08-11T20:42:10.747Z,24.42
2022-08-11T20:44:57.986Z,24.82
2022-08-11T20:47:56.470Z,25.32
2022-08-11T20:50:46.427Z,25.21
2022-08-11T20:53:38.993Z,24.81
2022-08-11T20:56:28.921Z,25.22
2022-08-11T20:59:22.122Z,25.03
2022-08-11T21:02:10.517Z,24.59
2022-08-11T21:05:00.379Z,24.98
2022-08-11T21:07:56.856Z,24.87
2022-08-11T21:10:51.181Z,24.45
2022-08-11T21:13:39.010Z,24.29
2022-08-11T21:16:27.310Z,24.13
2022-08-11T21:20:00.718Z,24.06
2022-08-11T21:22:36.761Z,23.76
2022-08-11T21:25:25.463Z,23.87
2022-08-11T21:28:11.357Z,23.89
2022-08-11T21:30:58.471Z,24.34
2022-08-11T21:33:46.932Z,24.39
2022-08-11T21:36:33.899Z,23.89
2022-08-11T21:39:25.076Z,23.73
2022-08-11T21:42:13.248Z,23.79
2022-08-11T21:45:01.059Z,23.93
2022-08-11T21:47:48.241Z,23.63
2022-08-11T21:50:34.036Z,23.51
2022-08-11T21:53:19.743Z,23.68
2022-08-11T21:56:05.415Z,23.66
2022-08-11T21:58:51.825Z,23.55
2022-08-11T22:01:37.513Z,23.52
2022-08-11T22:04:23.872Z,23.53
2022-08-11T22:07:10.169Z,23.47
2022-08-11T22:09:56.338Z,23.27
2022-08-11T22:12:44.985Z,23.72
2022-08-11T22:15:30.924Z,23.21
2022-08-11T22:18:16.043Z,23.37
2022-08-11T22:21:03.309Z,23.19
2022-08-11T22:23:54.954Z,23.40
2022-08-11T22:26:41.780Z,23.41
2022-08-11T22:29:38.084Z,23.65
2022-08-11T22:32:38.125Z,23.60
2022-08-11T22:35:24.117Z,23.25
2022-08-11T22:38:15.863Z,23.12
2022-08-11T22:41:01.689Z,23.59
2022-08-11T22:43:47.300Z,23.17
2022-08-11T22:46:34.145Z,22.72
2022-08-11T22:49:21.612Z,22.84
2022-08-11T22:52:08.220Z,22.91
2022-08-11T22:54:53.985Z,22.59
2022-08-11T22:57:41.166Z,22.58
2022-08-11T23:00:46.701Z,22.80
2022-08-11T23:03:38.082Z,23.11
2022-08-11T23:06:23.714Z,22.90
2022-08-11T23:09:09.462Z,22.80
2022-08-11T23:12:06.243Z,22.70
2022-08-11T23:14:54.777Z,23.10
2022-08-11T23:17:41.527Z,23.16
2022-08-11T23:20:39.282Z,22.85
2022-08-11T23:23:34.587Z,22.93
2022-08-11T23:26:20.661Z,22.73
2022-08-11T23:29:06.098Z,22.74
2022-08-11T23:31:53.843Z,22.78
2022-08-11T23:35:03.835Z,22.62
2022-08-11T23:37:48.317Z,22.71
2022-08-11T23:40:33.453Z,22.65
2022-08-11T23:43:19.823Z,22.95
2022-08-11T23:46:04.974Z,22.86
2022-08-11T23:48:50.785Z,22.85
2022-08-11T23:51:40.851Z,22.95
2022-08-11T23:54:31.621Z,22.75
2022-08-11T23:57:21.891Z,22.85
